sensor_id;sensor_type;location;lat;lon;timestamp;temperature;humidity
15676;DHT22;7938;47.666;9.434;2022-08-01T04:01:55;16.90;99.90
15676;DHT22;7938;47.666;9.434;2022-08-01T04:04:22;16.90;99.90
15676;DHT22;7938;47.666;9.434;2022-08-01T04:06:49;16.90;99.90
15676;DHT22;7938;47.666;9.434;2022-08-01T04:09:19;16.80;99.90
15676;DHT22;7938;47.666;9.434;2022-08-01T04:11:47;16.80;99.90
15676;DHT22;7938;47.666;9.434;2022-08-01T04:14:14;16.80;99.90
15676;DHT22;7938;47.666;9.434;2022-08-01T04:16:41;16.80;99.90
15676;DHT22;7938;47.666;9.434;2022-08-01T04:19:09;16.80;99.90
15676;DHT22;7938;47.666;9.434;2022-08-01T04:21:37;16.20;99.90
15676;DHT22;7938;47.666;9.434;2022-08-01T04:24:07;16.80;99.90
15676;DHT22;7938;47.666;9.434;2022-08-01T04:26:36;16.80;99.90
15676;DHT22;7938;47.666;9.434;2022-08-01T04:29:05;17.00;99.90
15676;DHT22;7938;47.666;9.434;2022-08-01T04:31:34;17.10;99.90
15676;DHT22;7938;47.666;9.434;2022-08-01T04:34:04;17.00;99.90
15676;DHT22;7938;47.666;9.434;2022-08-01T04:36:34;17.00;99.90
15676;DHT22;7938;47.666;9.434;2022-08-01T04:39:02;17.00;99.90
15676;DHT22;7938;47.666;9.434;2022-08-01T04:41:30;17.00;99.90
15676;DHT22;7938;47.666;9.434;2022-08-01T04:43:59;17.10;99.90
15676;DHT22;7938;47.666;9.434;2022-08-01T04:46:27;17.10;99.90
15676;DHT22;7938;47.666;9.434;2022-08-01T04:48:56;17.20;99.90
15676;DHT22;7938;47.666;9.434;2022-08-01T04:51:23;17.30;99.90
15676;DHT22;7938;47.666;9.434;2022-08-01T04:53:51;17.30;99.90
15676;DHT22;7938;47.666;9.434;2022-08-01T04:56:19;17.50;99.90
15676;DHT22;7938;47.666;9.434;2022-08-01T04:58:46;17.70;99.90
15676;DHT22;7938;47.666;9.434;2022-08-01T05:01:13;17.90;99.90
15676;DHT22;7938;47.666;9.434;2022-08-01T05:03:41;17.90;99.90
15676;DHT22;7938;47.666;9.434;2022-08-01T05:06:08;18.00;99.90
15676;DHT22;7938;47.666;9.434;2022-08-01T05:08:35;18.10;99.90
15676;DHT22;7938;47.666;9.434;2022-08-01T05:11:03;18.40;99.90
15676;DHT22;7938;47.666;9.434;2022-08-01T05:13:30;18.30;99.90
15676;DHT22;7938;47.666;9.434;2022-08-01T05:15:58;18.30;99.90
15676;DHT22;7938;47.666;9.434;2022-08-01T05:18:24;18.30;99.90
15676;DHT22;7938;47.666;9.434;2022-08-01T05:20:52;18.50;99.90
15676;DHT22;7938;47.666;9.434;2022-08-01T05:23:19;18.50;99.90
15676;DHT22;7938;47.666;9.434;2022-08-01T05:25:46;18.50;99.90
15676;DHT22;7938;47.666;9.434;2022-08-01T05:28:15;18.50;99.90
15676;DHT22;7938;47.666;9.434;2022-08-01T05:30:42;18.60;99.90
15676;DHT22;7938;47.666;9.434;2022-08-01T05:33:09;18.60;99.90
15676;DHT22;7938;47.666;9.434;2022-08-01T05:35:36;18.70;99.90
15676;DHT22;7938;47.666;9.434;2022-08-01T05:38:03;18.90;99.90
15676;DHT22;7938;47.666;9.434;2022-08-01T05:40:30;19.20;99.90
15676;DHT22;7938;47.666;9.434;2022-08-01T05:42:57;19.20;99.90
15676;DHT22;7938;47.666;9.434;2022-08-01T05:45:25;19.40;99.90
15676;DHT22;7938;47.666;9.434;2022-08-01T05:47:52;19.50;99.90
15676;DHT22;7938;47.666;9.434;2022-08-01T05:50:19;19.80;99.90
15676;DHT22;7938;47.666;9.434;2022-08-01T05:52:46;19.80;99.90
15676;DHT22;7938;47.666;9.434;2022-08-01T05:55:13;19.90;99.90
15676;DHT22;7938;47.666;9.434;2022-08-01T05:57:40;19.90;99.90
15676;DHT22;7938;47.666;9.434;2022-08-01T06:00:08;20.00;99.90
15676;DHT22;7938;47.666;9.434;2022-08-01T06:02:41;20.10;99.90
15676;DHT22;7938;47.666;9.434;2022-08-01T06:05:09;20.30;99.90
15676;DHT22;7938;47.666;9.434;2022-08-01T06:07:36;20.40;99.90
15676;DHT22;7938;47.666;9.434;2022-08-01T06:10:05;20.60;99.90
15676;DHT22;7938;47.666;9.434;2022-08-01T06:12:32;20.60;99.90
15676;DHT22;7938;47.666;9.434;2022-08-01T06:14:59;20.80;99.90
15676;DHT22;7938;47.666;9.434;2022-08-01T06:17:26;20.90;99.90
15676;DHT22;7938;47.666;9.434;2022-08-01T06:19:54;21.00;99.90
15676;DHT22;7938;47.666;9.434;2022-08-01T06:22:21;21.10;99.90
15676;DHT22;7938;47.666;9.434;2022-08-01T06:24:48;21.20;99.90
15676;DHT22;7938;47.666;9.434;2022-08-01T06:27:15;21.20;99.90
15676;DHT22;7938;47.666;9.434;2022-08-01T06:29:42;21.40;99.90
15676;DHT22;7938;47.666;9.434;2022-08-01T06:32:09;21.50;99.90
15676;DHT22;7938;47.666;9.434;2022-08-01T06:34:36;21.50;99.90
15676;DHT22;7938;47.666;9.434;2022-08-01T06:37:04;21.60;99.90
15676;DHT22;7938;47.666;9.434;2022-08-01T06:39:31;21.60;99.90
15676;DHT22;7938;47.666;9.434;2022-08-01T06:41:58;21.60;99.90
15676;DHT22;7938;47.666;9.434;2022-08-01T06:44:25;21.60;99.90
15676;DHT22;7938;47.666;9.434;2022-08-01T06:46:52;21.60;99.90
15676;DHT22;7938;47.666;9.434;2022-08-01T06:49:19;21.70;99.90
15676;DHT22;7938;47.666;9.434;2022-08-01T06:51:46;21.70;99.90
15676;DHT22;7938;47.666;9.434;2022-08-01T06:54:14;21.70;99.90
15676;DHT22;7938;47.666;9.434;2022-08-01T06:56:41;21.70;99.90
15676;DHT22;7938;47.666;9.434;2022-08-01T06:59:08;21.70;99.90
15676;DHT22;7938;47.666;9.434;2022-08-01T07:01:35;21.80;99.90
15676;DHT22;7938;47.666;9.434;2022-08-01T07:04:02;21.80;99.90
15676;DHT22;7938;47.666;9.434;2022-08-01T07:06:29;21.90;99.90
15676;DHT22;7938;47.666;9.434;2022-08-01T07:08:56;21.90;99.90
15676;DHT22;7938;47.666;9.434;2022-08-01T07:11:25;21.90;99.90
15676;DHT22;7938;47.666;9.434;2022-08-01T07:13:52;21.90;99.90
15676;DHT22;7938;47.666;9.434;2022-08-01T07:16:19;22.00;99.90
15676;DHT22;7938;47.666;9.434;2022-08-01T07:18:46;22.10;99.90
15676;DHT22;7938;47.666;9.434;2022-08-01T07:21:13;22.10;99.90
15676;DHT22;7938;47.666;9.434;2022-08-01T07:23:40;22.20;99.90
15676;DHT22;7938;47.666;9.434;2022-08-01T07:26:07;22.30;99.90
15676;DHT22;7938;47.666;9.434;2022-08-01T07:28:35;22.30;99.90
15676;DHT22;7938;47.666;9.434;2022-08-01T07:31:02;22.80;99.90
15676;DHT22;7938;47.666;9.434;2022-08-01T07:33:29;22.30;99.90
15676;DHT22;7938;47.666;9.434;2022-08-01T07:35:56;22.30;99.90
15676;DHT22;7938;47.666;9.434;2022-08-01T07:38:22;22.40;99.90
15676;DHT22;7938;47.666;9.434;2022-08-01T07:40:49;22.40;99.90
15676;DHT22;7938;47.666;9.434;2022-08-01T07:43:16;22.50;99.90
15676;DHT22;7938;47.666;9.434;2022-08-01T07:45:45;22.60;99.90
15676;DHT22;7938;47.666;9.434;2022-08-01T07:48:14;22.50;99.90
15676;DHT22;7938;47.666;9.434;2022-08-01T07:50:40;22.50;99.90
15676;DHT22;7938;47.666;9.434;2022-08-01T07:53:07;22.50;99.90
15676;DHT22;7938;47.666;9.434;2022-08-01T07:55:35;22.60;99.90
15676;DHT22;7938;47.666;9.434;2022-08-01T07:58:02;22.70;99.90
15676;DHT22;7938;47.666;9.434;2022-08-01T08:00:29;22.80;99.90
15676;DHT22;7938;47.666;9.434;2022-08-01T08:02:57;22.70;99.90
15676;DHT22;7938;47.666;9.434;2022-08-01T08:05:25;22.90;99.90
15676;DHT22;7938;47.666;9.434;2022-08-01T08:07:52;22.90;99.90
15676;DHT22;7938;47.666;9.434;2022-08-01T08:10:19;23.00;99.90
15676;DHT22;7938;47.666;9.434;2022-08-01T08:12:46;23.00;99.90
15676;DHT22;7938;47.666;9.434;2022-08-01T08:15:14;23.00;99.90
15676;DHT22;7938;47.666;9.434;2022-08-01T08:17:41;23.10;99.90
15676;DHT22;7938;47.666;9.434;2022-08-01T08:20:10;23.10;99.90
15676;DHT22;7938;47.666;9.434;2022-08-01T08:22:37;23.20;99.90
15676;DHT22;7938;47.666;9.434;2022-08-01T08:25:06;23.20;99.90
15676;DHT22;7938;47.666;9.434;2022-08-01T08:27:34;23.20;99.90
15676;DHT22;7938;47.666;9.434;2022-08-01T08:30:01;23.30;99.90
15676;DHT22;7938;47.666;9.434;2022-08-01T08:32:30;23.40;99.90
15676;DHT22;7938;47.666;9.434;2022-08-01T08:34:57;23.50;99.90
15676;DHT22;7938;47.666;9.434;2022-08-01T08:37:26;23.40;99.90
15676;DHT22;7938;47.666;9.434;2022-08-01T08:39:53;24.00;99.90
15676;DHT22;7938;47.666;9.434;2022-08-01T08:42:20;23.60;99.90
15676;DHT22;7938;47.666;9.434;2022-08-01T08:44:47;23.60;99.90
15676;DHT22;7938;47.666;9.434;2022-08-01T08:47:15;23.60;99.90
15676;DHT22;7938;47.666;9.434;2022-08-01T08:49:43;22.90;99.90
15676;DHT22;7938;47.666;9.434;2022-08-01T08:52:11;23.60;99.90
15676;DHT22;7938;47.666;9.434;2022-08-01T08:54:41;23.70;99.90
15676;DHT22;7938;47.666;9.434;2022-08-01T08:57:10;23.80;99.90
15676;DHT22;7938;47.666;9.434;2022-08-01T08:59:40;23.70;99.90
15676;DHT22;7938;47.666;9.434;2022-08-01T09:02:07;23.70;99.90
15676;DHT22;7938;47.666;9.434;2022-08-01T09:04:36;23.50;99.90
15676;DHT22;7938;47.666;9.434;2022-08-01T09:07:04;23.90;99.90
15676;DHT22;7938;47.666;9.434;2022-08-01T09:09:31;23.80;99.90
15676;DHT22;7938;47.666;9.434;2022-08-01T09:11:59;23.90;99.90
15676;DHT22;7938;47.666;9.434;2022-08-01T09:14:27;23.90;99.90
15676;DHT22;7938;47.666;9.434;2022-08-01T09:17:00;23.90;99.90
15676;DHT22;7938;47.666;9.434;2022-08-01T09:19:34;24.00;99.90
15676;DHT22;7938;47.666;9.434;2022-08-01T09:22:03;24.00;99.90
15676;DHT22;7938;47.666;9.434;2022-08-01T09:24:31;24.10;99.90
15676;DHT22;7938;47.666;9.434;2022-08-01T09:27:00;24.20;99.90
15676;DHT22;7938;47.666;9.434;2022-08-01T09:29:29;24.30;99.90
15676;DHT22;7938;47.666;9.434;2022-08-01T09:31:57;24.30;99.90
15676;DHT22;7938;47.666;9.434;2022-08-01T09:34:26;24.40;99.90
15676;DHT22;7938;47.666;9.434;2022-08-01T09:36:55;24.40;99.90
15676;DHT22;7938;47.666;9.434;2022-08-01T09:39:23;24.30;99.90
15676;DHT22;7938;47.666;9.434;2022-08-01T09:41:53;24.30;99.90
15676;DHT22;7938;47.666;9.434;2022-08-01T09:44:36;24.30;99.90
15676;DHT22;7938;47.666;9.434;2022-08-01T09:47:04;24.40;99.90
15676;DHT22;7938;47.666;9.434;2022-08-01T09:49:32;24.50;99.90
15676;DHT22;7938;47.666;9.434;2022-08-01T09:52:10;24.30;99.90
15676;DHT22;7938;47.666;9.434;2022-08-01T09:54:38;24.60;99.90
15676;DHT22;7938;47.666;9.434;2022-08-01T09:57:11;24.70;99.90
15676;DHT22;7938;47.666;9.434;2022-08-01T09:59:41;24.80;99.90
15676;DHT22;7938;47.666;9.434;2022-08-01T10:02:10;24.90;99.90
15676;DHT22;7938;47.666;9.434;2022-08-01T10:04:47;24.90;99.90
15676;DHT22;7938;47.666;9.434;2022-08-01T10:07:14;25.00;99.30
15676;DHT22;7938;47.666;9.434;2022-08-01T10:09:43;25.20;99.00
15676;DHT22;7938;47.666;9.434;2022-08-01T10:12:12;25.30;97.80
15676;DHT22;7938;47.666;9.434;2022-08-01T10:14:41;25.40;97.00
15676;DHT22;7938;47.666;9.434;2022-08-01T10:17:11;25.50;96.80
15676;DHT22;7938;47.666;9.434;2022-08-01T10:19:40;25.60;96.40
15676;DHT22;7938;47.666;9.434;2022-08-01T10:22:08;25.60;95.40
15676;DHT22;7938;47.666;9.434;2022-08-01T10:24:37;25.60;97.10
15676;DHT22;7938;47.666;9.434;2022-08-01T10:27:08;25.70;96.20
15676;DHT22;7938;47.666;9.434;2022-08-01T10:29:40;25.80;96.00
15676;DHT22;7938;47.666;9.434;2022-08-01T10:32:09;25.90;94.30
15676;DHT22;7938;47.666;9.434;2022-08-01T10:34:36;26.00;96.30
15676;DHT22;7938;47.666;9.434;2022-08-01T10:37:04;26.10;94.90
15676;DHT22;7938;47.666;9.434;2022-08-01T10:39:32;26.20;95.40
15676;DHT22;7938;47.666;9.434;2022-08-01T10:41:59;26.20;92.70
15676;DHT22;7938;47.666;9.434;2022-08-01T10:44:29;26.40;94.50
15676;DHT22;7938;47.666;9.434;2022-08-01T10:47:01;26.50;94.80
15676;DHT22;7938;47.666;9.434;2022-08-01T10:49:34;26.50;94.70
15676;DHT22;7938;47.666;9.434;2022-08-01T10:52:03;26.50;93.70
15676;DHT22;7938;47.666;9.434;2022-08-01T10:54:38;26.50;94.90
15676;DHT22;7938;47.666;9.434;2022-08-01T10:57:06;26.60;93.90
15676;DHT22;7938;47.666;9.434;2022-08-01T10:59:33;26.60;93.40
15676;DHT22;7938;47.666;9.434;2022-08-01T11:02:02;26.80;93.00
15676;DHT22;7938;47.666;9.434;2022-08-01T11:04:42;26.80;92.90
15676;DHT22;7938;47.666;9.434;2022-08-01T11:07:16;26.70;93.20
15676;DHT22;7938;47.666;9.434;2022-08-01T11:09:46;26.80;92.60
15676;DHT22;7938;47.666;9.434;2022-08-01T11:12:15;26.80;92.90
15676;DHT22;7938;47.666;9.434;2022-08-01T11:18:00;26.90;93.50
15676;DHT22;7938;47.666;9.434;2022-08-01T11:20:30;27.20;93.30
15676;DHT22;7938;47.666;9.434;2022-08-01T11:23:28;27.20;93.30
15676;DHT22;7938;47.666;9.434;2022-08-01T11:26:10;27.20;92.70
15676;DHT22;7938;47.666;9.434;2022-08-01T11:28:38;27.20;92.40
15676;DHT22;7938;47.666;9.434;2022-08-01T11:31:30;27.20;92.30
15676;DHT22;7938;47.666;9.434;2022-08-01T11:33:58;27.20;92.90
15676;DHT22;7938;47.666;9.434;2022-08-01T11:36:27;27.20;92.40
15676;DHT22;7938;47.666;9.434;2022-08-01T11:39:14;27.30;91.50
15676;DHT22;7938;47.666;9.434;2022-08-01T11:41:43;27.40;91.50
15676;DHT22;7938;47.666;9.434;2022-08-01T11:44:12;27.50;92.20
15676;DHT22;7938;47.666;9.434;2022-08-01T11:46:47;27.40;91.70
15676;DHT22;7938;47.666;9.434;2022-08-01T11:49:28;27.60;91.50
15676;DHT22;7938;47.666;9.434;2022-08-01T11:52:01;27.60;91.80
15676;DHT22;7938;47.666;9.434;2022-08-01T11:54:30;27.60;91.80
15676;DHT22;7938;47.666;9.434;2022-08-01T11:56:59;27.80;91.90
15676;DHT22;7938;47.666;9.434;2022-08-01T11:59:27;28.50;91.00
15676;DHT22;7938;47.666;9.434;2022-08-01T12:01:54;28.00;90.80
15676;DHT22;7938;47.666;9.434;2022-08-01T12:04:21;28.00;92.40
15676;DHT22;7938;47.666;9.434;2022-08-01T12:06:48;28.10;91.20
15676;DHT22;7938;47.666;9.434;2022-08-01T12:09:17;28.00;90.60
15676;DHT22;7938;47.666;9.434;2022-08-01T12:11:45;28.00;89.50
15676;DHT22;7938;47.666;9.434;2022-08-01T12:14:17;28.00;90.80
15676;DHT22;7938;47.666;9.434;2022-08-01T12:16:52;28.10;89.30
15676;DHT22;7938;47.666;9.434;2022-08-01T12:19:21;28.10;90.40
15676;DHT22;7938;47.666;9.434;2022-08-01T12:22:09;28.20;90.40
15676;DHT22;7938;47.666;9.434;2022-08-01T12:24:38;28.30;91.10
15676;DHT22;7938;47.666;9.434;2022-08-01T12:27:07;28.30;90.50
15676;DHT22;7938;47.666;9.434;2022-08-01T12:29:36;28.20;90.00
15676;DHT22;7938;47.666;9.434;2022-08-01T12:32:04;27.90;89.00
15676;DHT22;7938;47.666;9.434;2022-08-01T12:34:47;28.60;87.70
15676;DHT22;7938;47.666;9.434;2022-08-01T12:37:14;28.60;88.40
15676;DHT22;7938;47.666;9.434;2022-08-01T12:39:42;28.70;90.00
15676;DHT22;7938;47.666;9.434;2022-08-01T12:42:10;28.80;87.60
15676;DHT22;7938;47.666;9.434;2022-08-01T12:44:38;28.90;87.80
15676;DHT22;7938;47.666;9.434;2022-08-01T12:47:06;29.00;88.50
15676;DHT22;7938;47.666;9.434;2022-08-01T12:49:35;29.20;90.20
15676;DHT22;7938;47.666;9.434;2022-08-01T12:52:03;29.10;89.10
15676;DHT22;7938;47.666;9.434;2022-08-01T12:54:30;29.10;87.50
15676;DHT22;7938;47.666;9.434;2022-08-01T12:56:58;29.20;86.40
15676;DHT22;7938;47.666;9.434;2022-08-01T12:59:27;29.10;89.30
15676;DHT22;7938;47.666;9.434;2022-08-01T13:01:54;29.30;88.90
15676;DHT22;7938;47.666;9.434;2022-08-01T13:04:22;29.30;86.90
15676;DHT22;7938;47.666;9.434;2022-08-01T13:06:53;29.30;86.00
15676;DHT22;7938;47.666;9.434;2022-08-01T13:09:20;29.50;87.90
15676;DHT22;7938;47.666;9.434;2022-08-01T13:11:47;29.60;87.30
15676;DHT22;7938;47.666;9.434;2022-08-01T13:14:28;29.50;86.10
15676;DHT22;7938;47.666;9.434;2022-08-01T13:16:55;29.90;86.70
15676;DHT22;7938;47.666;9.434;2022-08-01T13:19:43;30.10;84.20
15676;DHT22;7938;47.666;9.434;2022-08-01T13:22:10;30.00;85.30
15676;DHT22;7938;47.666;9.434;2022-08-01T13:24:37;29.80;83.10
15676;DHT22;7938;47.666;9.434;2022-08-01T13:27:04;29.60;85.90
15676;DHT22;7938;47.666;9.434;2022-08-01T13:29:34;30.30;84.10
15676;DHT22;7938;47.666;9.434;2022-08-01T13:32:12;30.70;87.30
15676;DHT22;7938;47.666;9.434;2022-08-01T13:34:40;30.70;81.70
15676;DHT22;7938;47.666;9.434;2022-08-01T13:37:07;30.70;83.70
15676;DHT22;7938;47.666;9.434;2022-08-01T13:39:34;30.70;81.90
15676;DHT22;7938;47.666;9.434;2022-08-01T13:42:06;30.60;83.60
15676;DHT22;7938;47.666;9.434;2022-08-01T13:44:35;30.30;83.90
15676;DHT22;7938;47.666;9.434;2022-08-01T13:47:02;30.60;87.70
15676;DHT22;7938;47.666;9.434;2022-08-01T13:49:29;30.80;81.80
15676;DHT22;7938;47.666;9.434;2022-08-01T13:51:56;30.70;86.20
15676;DHT22;7938;47.666;9.434;2022-08-01T13:54:23;31.00;84.50
15676;DHT22;7938;47.666;9.434;2022-08-01T13:56:50;31.30;81.70
15676;DHT22;7938;47.666;9.434;2022-08-01T13:59:17;31.20;83.10
15676;DHT22;7938;47.666;9.434;2022-08-01T14:01:46;31.10;86.00
15676;DHT22;7938;47.666;9.434;2022-08-01T14:04:13;31.40;85.60
15676;DHT22;7938;47.666;9.434;2022-08-01T14:06:40;31.50;85.90
15676;DHT22;7938;47.666;9.434;2022-08-01T14:09:08;31.50;90.70
15676;DHT22;7938;47.666;9.434;2022-08-01T14:11:35;31.80;86.70
15676;DHT22;7938;47.666;9.434;2022-08-01T14:14:02;32.80;86.80
15676;DHT22;7938;47.666;9.434;2022-08-01T14:16:29;34.20;81.90
15676;DHT22;7938;47.666;9.434;2022-08-01T14:18:57;34.30;79.50
15676;DHT22;7938;47.666;9.434;2022-08-01T14:21:24;35.50;78.90
15676;DHT22;7938;47.666;9.434;2022-08-01T14:23:51;36.80;76.60
15676;DHT22;7938;47.666;9.434;2022-08-01T14:26:17;36.80;72.80
15676;DHT22;7938;47.666;9.434;2022-08-01T14:28:44;37.00;72.10
15676;DHT22;7938;47.666;9.434;2022-08-01T14:31:11;37.20;72.90
15676;DHT22;7938;47.666;9.434;2022-08-01T14:33:38;36.90;74.30
15676;DHT22;7938;47.666;9.434;2022-08-01T14:36:07;37.50;71.70
15676;DHT22;7938;47.666;9.434;2022-08-01T14:38:34;36.50;67.20
15676;DHT22;7938;47.666;9.434;2022-08-01T14:41:01;37.00;70.70
15676;DHT22;7938;47.666;9.434;2022-08-01T14:43:29;36.90;72.20
15676;DHT22;7938;47.666;9.434;2022-08-01T14:45:57;37.90;67.40
15676;DHT22;7938;47.666;9.434;2022-08-01T14:48:24;38.30;68.70
15676;DHT22;7938;47.666;9.434;2022-08-01T14:50:51;37.90;70.00
15676;DHT22;7938;47.666;9.434;2022-08-01T14:53:20;38.40;65.50
15676;DHT22;7938;47.666;9.434;2022-08-01T14:55:47;39.00;65.40
15676;DHT22;7938;47.666;9.434;2022-08-01T14:58:14;38.30;65.00
15676;DHT22;7938;47.666;9.434;2022-08-01T15:00:41;38.30;63.70
15676;DHT22;7938;47.666;9.434;2022-08-01T15:03:08;38.60;64.80
15676;DHT22;7938;47.666;9.434;2022-08-01T15:05:35;39.10;64.90
15676;DHT22;7938;47.666;9.434;2022-08-01T15:08:03;39.50;60.60
15676;DHT22;7938;47.666;9.434;2022-08-01T15:10:32;40.60;59.00
15676;DHT22;7938;47.666;9.434;2022-08-01T15:12:59;40.70;59.10
15676;DHT22;7938;47.666;9.434;2022-08-01T15:15:27;40.80;58.50
15676;DHT22;7938;47.666;9.434;2022-08-01T15:17:54;41.70;58.80
15676;DHT22;7938;47.666;9.434;2022-08-01T15:20:21;41.90;56.00
15676;DHT22;7938;47.666;9.434;2022-08-01T15:22:49;41.80;56.80
15676;DHT22;7938;47.666;9.434;2022-08-01T15:25:16;40.70;54.30
15676;DHT22;7938;47.666;9.434;2022-08-01T15:27:44;40.60;55.50
15676;DHT22;7938;47.666;9.434;2022-08-01T15:30:11;40.00;54.30
15676;DHT22;7938;47.666;9.434;2022-08-01T15:32:39;40.30;55.70
15676;DHT22;7938;47.666;9.434;2022-08-01T15:35:06;40.20;57.50
15676;DHT22;7938;47.666;9.434;2022-08-01T15:37:35;41.40;56.50
15676;DHT22;7938;47.666;9.434;2022-08-01T15:40:03;41.90;54.10
15676;DHT22;7938;47.666;9.434;2022-08-01T15:42:30;41.20;54.70
15676;DHT22;7938;47.666;9.434;2022-08-01T15:45:01;39.50;61.30
15676;DHT22;7938;47.666;9.434;2022-08-01T15:47:27;40.10;59.40
15676;DHT22;7938;47.666;9.434;2022-08-01T15:49:54;38.80;59.90
15676;DHT22;7938;47.666;9.434;2022-08-01T15:52:25;37.00;59.50
15676;DHT22;7938;47.666;9.434;2022-08-01T15:54:52;35.60;60.50
15676;DHT22;7938;47.666;9.434;2022-08-01T15:57:19;35.50;60.80
15676;DHT22;7938;47.666;9.434;2022-08-01T15:59:46;35.10;63.80
15676;DHT22;7938;47.666;9.434;2022-08-01T16:02:14;33.00;67.10
15676;DHT22;7938;47.666;9.434;2022-08-01T16:04:41;32.30;69.50
15676;DHT22;7938;47.666;9.434;2022-08-01T16:07:08;31.50;72.80
15676;DHT22;7938;47.666;9.434;2022-08-01T16:09:36;30.70;73.90
15676;DHT22;7938;47.666;9.434;2022-08-01T16:12:03;30.00;75.90
15676;DHT22;7938;47.666;9.434;2022-08-01T16:14:30;29.80;77.40
15676;DHT22;7938;47.666;9.434;2022-08-01T16:16:57;30.40;77.70
15676;DHT22;7938;47.666;9.434;2022-08-01T16:19:25;31.80;75.30
15676;DHT22;7938;47.666;9.434;2022-08-01T16:21:52;35.30;69.30
15676;DHT22;7938;47.666;9.434;2022-08-01T16:24:19;36.40;68.30
15676;DHT22;7938;47.666;9.434;2022-08-01T16:26:46;37.80;64.80
15676;DHT22;7938;47.666;9.434;2022-08-01T16:29:13;38.40;64.80
15676;DHT22;7938;47.666;9.434;2022-08-01T16:31:40;38.90;62.80
15676;DHT22;7938;47.666;9.434;2022-08-01T16:34:07;39.10;61.60
15676;DHT22;7938;47.666;9.434;2022-08-01T16:36:35;40.10;63.20
15676;DHT22;7938;47.666;9.434;2022-08-01T16:39:02;40.40;59.40
15676;DHT22;7938;47.666;9.434;2022-08-01T16:41:32;39.60;60.10
15676;DHT22;7938;47.666;9.434;2022-08-01T16:43:58;39.60;60.40
15676;DHT22;7938;47.666;9.434;2022-08-01T16:46:25;38.60;60.00
15676;DHT22;7938;47.666;9.434;2022-08-01T16:48:53;36.80;62.70
15676;DHT22;7938;47.666;9.434;2022-08-01T16:51:20;34.10;67.60
15676;DHT22;7938;47.666;9.434;2022-08-01T16:53:48;32.90;69.80
15676;DHT22;7938;47.666;9.434;2022-08-01T16:56:15;31.60;73.10
15676;DHT22;7938;47.666;9.434;2022-08-01T16:58:42;30.60;75.60
15676;DHT22;7938;47.666;9.434;2022-08-01T17:01:09;29.60;78.40
15676;DHT22;7938;47.666;9.434;2022-08-01T17:03:36;29.40;78.70
15676;DHT22;7938;47.666;9.434;2022-08-01T17:06:03;29.00;80.20
15676;DHT22;7938;47.666;9.434;2022-08-01T17:08:30;28.70;81.40
15676;DHT22;7938;47.666;9.434;2022-08-01T17:10:58;28.40;81.70
15676;DHT22;7938;47.666;9.434;2022-08-01T17:13:25;28.40;83.50
15676;DHT22;7938;47.666;9.434;2022-08-01T17:15:52;28.30;82.90
15676;DHT22;7938;47.666;9.434;2022-08-01T17:18:19;28.20;83.70
15676;DHT22;7938;47.666;9.434;2022-08-01T17:20:47;28.00;83.80
15676;DHT22;7938;47.666;9.434;2022-08-01T17:23:15;28.00;85.00
15676;DHT22;7938;47.666;9.434;2022-08-01T17:25:42;27.70;85.70
15676;DHT22;7938;47.666;9.434;2022-08-01T17:28:10;27.60;86.80
15676;DHT22;7938;47.666;9.434;2022-08-01T17:30:37;27.50;86.00
15676;DHT22;7938;47.666;9.434;2022-08-01T17:33:05;27.50;86.50
15676;DHT22;7938;47.666;9.434;2022-08-01T17:35:32;27.20;87.30
15676;DHT22;7938;47.666;9.434;2022-08-01T17:37:59;27.10;88.10
15676;DHT22;7938;47.666;9.434;2022-08-01T17:40:25;26.80;88.70
15676;DHT22;7938;47.666;9.434;2022-08-01T17:42:52;26.80;89.30
15676;DHT22;7938;47.666;9.434;2022-08-01T17:45:21;26.70;89.60
15676;DHT22;7938;47.666;9.434;2022-08-01T17:47:48;26.60;90.10
15676;DHT22;7938;47.666;9.434;2022-08-01T17:50:15;26.50;90.20
15676;DHT22;7938;47.666;9.434;2022-08-01T17:52:42;26.30;90.20
15676;DHT22;7938;47.666;9.434;2022-08-01T17:55:10;26.30;90.50
15676;DHT22;7938;47.666;9.434;2022-08-01T17:57:37;26.20;90.50
15676;DHT22;7938;47.666;9.434;2022-08-01T18:00:06;26.10;90.80
15676;DHT22;7938;47.666;9.434;2022-08-01T18:02:35;26.10;90.80
15676;DHT22;7938;47.666;9.434;2022-08-01T18:05:02;25.90;91.20
15676;DHT22;7938;47.666;9.434;2022-08-01T18:07:29;25.80;91.40
15676;DHT22;7938;47.666;9.434;2022-08-01T18:09:56;25.70;91.40
15676;DHT22;7938;47.666;9.434;2022-08-01T18:12:26;25.60;91.60
15676;DHT22;7938;47.666;9.434;2022-08-01T18:14:53;25.50;91.90
15676;DHT22;7938;47.666;9.434;2022-08-01T18:17:20;25.50;92.10
15676;DHT22;7938;47.666;9.434;2022-08-01T18:19:48;25.20;92.30
15676;DHT22;7938;47.666;9.434;2022-08-01T18:22:15;25.10;92.10
15676;DHT22;7938;47.666;9.434;2022-08-01T18:24:43;25.00;92.60
15676;DHT22;7938;47.666;9.434;2022-08-01T18:27:10;24.90;92.50
15676;DHT22;7938;47.666;9.434;2022-08-01T18:29:37;24.70;93.30
15676;DHT22;7938;47.666;9.434;2022-08-01T18:32:04;24.60;93.30
15676;DHT22;7938;47.666;9.434;2022-08-01T18:34:31;24.40;93.30
15676;DHT22;7938;47.666;9.434;2022-08-01T18:36:59;24.40;93.40
15676;DHT22;7938;47.666;9.434;2022-08-01T18:39:27;24.40;93.30
15676;DHT22;7938;47.666;9.434;2022-08-01T18:41:53;24.30;93.90
15676;DHT22;7938;47.666;9.434;2022-08-01T18:44:21;24.20;93.60
15676;DHT22;7938;47.666;9.434;2022-08-01T18:46:48;24.00;93.70
15676;DHT22;7938;47.666;9.434;2022-08-01T18:49:15;23.90;94.00
15676;DHT22;7938;47.666;9.434;2022-08-01T18:51:44;23.60;94.30
15676;DHT22;7938;47.666;9.434;2022-08-01T18:54:13;23.60;94.30
15676;DHT22;7938;47.666;9.434;2022-08-01T18:56:41;23.50;94.50
15676;DHT22;7938;47.666;9.434;2022-08-01T18:59:10;23.40;94.40
15676;DHT22;7938;47.666;9.434;2022-08-01T19:01:38;23.30;94.10
15676;DHT22;7938;47.666;9.434;2022-08-01T19:04:05;23.30;94.20
15676;DHT22;7938;47.666;9.434;2022-08-01T19:06:32;23.30;94.40
15676;DHT22;7938;47.666;9.434;2022-08-01T19:09:00;23.20;94.20
15676;DHT22;7938;47.666;9.434;2022-08-01T19:11:30;23.10;94.70
15676;DHT22;7938;47.666;9.434;2022-08-01T19:13:57;23.00;94.70
15676;DHT22;7938;47.666;9.434;2022-08-01T19:16:24;22.90;95.00
15676;DHT22;7938;47.666;9.434;2022-08-01T19:18:51;22.80;95.20
15676;DHT22;7938;47.666;9.434;2022-08-01T19:21:19;22.70;95.20
15676;DHT22;7938;47.666;9.434;2022-08-01T19:23:46;22.70;96.00
15676;DHT22;7938;47.666;9.434;2022-08-01T19:26:33;22.80;95.70
15676;DHT22;7938;47.666;9.434;2022-08-01T19:29:01;22.70;95.90
15676;DHT22;7938;47.666;9.434;2022-08-01T19:31:31;22.70;96.20
15676;DHT22;7938;47.666;9.434;2022-08-01T19:33:58;22.60;96.30
15676;DHT22;7938;47.666;9.434;2022-08-01T19:36:25;22.70;96.70
15676;DHT22;7938;47.666;9.434;2022-08-01T19:38:53;22.70;96.80
15676;DHT22;7938;47.666;9.434;2022-08-01T19:41:21;22.70;97.10
15676;DHT22;7938;47.666;9.434;2022-08-01T19:43:50;22.70;97.20
15676;DHT22;7938;47.666;9.434;2022-08-01T19:46:17;22.20;97.30
15676;DHT22;7938;47.666;9.434;2022-08-01T19:48:45;22.70;97.60
15676;DHT22;7938;47.666;9.434;2022-08-01T19:51:15;22.80;97.60
15676;DHT22;7938;47.666;9.434;2022-08-01T19:53:45;22.80;97.80
15676;DHT22;7938;47.666;9.434;2022-08-01T19:56:15;22.80;97.80